createdAt,value
2019-05-26T00:00:58.585Z,6.62
2019-05-26T00:03:27.367Z,6.87
2019-05-26T00:05:56.511Z,6.45
2019-05-26T00:08:25.908Z,6.50
2019-05-26T00:10:55.042Z,6.85
2019-05-26T00:13:23.979Z,6.55
2019-05-26T00:15:52.886Z,6.95
2019-05-26T00:18:21.685Z,7.10
2019-05-26T00:20:50.667Z,6.17
2019-05-26T00:23:19.584Z,6.95
2019-05-26T00:25:48.584Z,6.97
2019-05-26T00:28:17.705Z,6.87
2019-05-26T00:30:46.646Z,7.10
2019-05-26T00:33:15.616Z,6.97
2019-05-26T00:35:44.812Z,6.75
2019-05-26T00:38:13.816Z,6.70
2019-05-26T00:40:42.483Z,7.25
2019-05-26T00:43:11.502Z,6.92
2019-05-26T00:45:40.810Z,6.60
2019-05-26T00:48:10.052Z,7.30
2019-05-26T00:50:39.288Z,6.78
2019-05-26T00:53:08.668Z,7.50
2019-05-26T00:55:37.776Z,6.50
2019-05-26T00:58:06.958Z,7.03
2019-05-26T01:00:41.064Z,7.15
2019-05-26T01:03:10.826Z,6.53
2019-05-26T01:05:40.246Z,7.03
2019-05-26T01:08:08.928Z,7.30
2019-05-26T01:10:37.874Z,7.15
2019-05-26T01:13:07.125Z,7.33
2019-05-26T01:15:36.386Z,7.17
2019-05-26T01:18:06.189Z,7.15
2019-05-26T01:20:34.992Z,6.60
2019-05-26T01:23:04.386Z,6.95
2019-05-26T01:25:33.253Z,6.85
2019-05-26T01:28:02.186Z,7.12
2019-05-26T01:30:35.201Z,7.03
2019-05-26T01:33:04.547Z,6.90
2019-05-26T01:35:34.194Z,6.40
2019-05-26T01:38:03.308Z,6.67
2019-05-26T01:40:39.712Z,6.87
2019-05-26T01:43:08.837Z,6.92
2019-05-26T01:45:38.351Z,6.70
2019-05-26T01:48:08.365Z,7.00
2019-05-26T01:50:38.394Z,7.35
2019-05-26T01:53:07.722Z,7.67
2019-05-26T01:55:36.997Z,6.90
2019-05-26T01:58:06.544Z,6.90
2019-05-26T02:00:35.790Z,6.92
2019-05-26T02:03:05.203Z,6.67
2019-05-26T02:05:34.183Z,7.40
2019-05-26T02:08:03.365Z,6.85
2019-05-26T02:10:32.532Z,6.60
2019-05-26T02:13:01.361Z,6.50
2019-05-26T02:15:30.664Z,7.05
2019-05-26T02:17:59.890Z,6.70
2019-05-26T02:20:28.905Z,7.47
2019-05-26T02:22:57.969Z,7.10
2019-05-26T02:25:27.788Z,6.53
2019-05-26T02:27:56.714Z,7.37
2019-05-26T02:30:25.556Z,7.08
2019-05-26T02:32:54.545Z,7.22
2019-05-26T02:35:23.837Z,7.05
2019-05-26T02:37:52.922Z,7.83
2019-05-26T02:40:22.431Z,7.83
2019-05-26T02:42:51.636Z,7.50
2019-05-26T02:45:21.711Z,7.83
2019-05-26T02:47:50.798Z,7.72
2019-05-26T02:50:20.311Z,7.55
2019-05-26T02:52:49.794Z,8.08
2019-05-26T02:55:19.473Z,8.30
2019-05-26T02:57:48.609Z,7.65
2019-05-26T03:00:35.939Z,9.73
2019-05-26T03:03:05.248Z,9.80
2019-05-26T03:05:34.370Z,9.73
2019-05-26T03:08:03.638Z,8.98
2019-05-26T03:10:33.570Z,9.48
2019-05-26T03:13:04.253Z,10.45
2019-05-26T03:15:34.974Z,8.93
2019-05-26T03:18:07.295Z,10.65
2019-05-26T03:20:38.013Z,10.13
2019-05-26T03:23:07.632Z,10.78
2019-05-26T03:25:37.879Z,9.88
2019-05-26T03:28:07.836Z,10.80
2019-05-26T03:30:37.601Z,10.88
2019-05-26T03:33:06.921Z,10.38
2019-05-26T03:35:36.008Z,10.50
2019-05-26T03:38:05.253Z,10.70
2019-05-26T03:40:34.672Z,11.68
2019-05-26T03:43:03.708Z,11.83
2019-05-26T03:45:43.314Z,10.88
2019-05-26T03:48:12.276Z,10.32
2019-05-26T03:50:42.992Z,10.48
2019-05-26T03:53:11.951Z,11.25
2019-05-26T03:55:40.908Z,10.45
2019-05-26T03:58:10.105Z,11.57
2019-05-26T04:00:39.473Z,10.88
2019-05-26T04:03:08.910Z,10.58
2019-05-26T04:05:37.788Z,10.85
2019-05-26T04:08:06.745Z,11.08
2019-05-26T04:10:35.828Z,10.72
2019-05-26T04:13:05.015Z,11.10
2019-05-26T04:15:34.194Z,11.43
2019-05-26T04:18:03.336Z,11.40
2019-05-26T04:20:32.725Z,11.50
2019-05-26T04:23:01.701Z,10.58
2019-05-26T04:25:30.986Z,11.18
2019-05-26T04:28:00.116Z,11.10
2019-05-26T04:30:29.234Z,10.80
2019-05-26T04:32:58.673Z,10.20
2019-05-26T04:35:27.787Z,10.32
2019-05-26T04:37:56.785Z,11.38
2019-05-26T04:40:27.772Z,11.18
2019-05-26T04:42:56.275Z,10.68
2019-05-26T04:45:25.096Z,11.15
2019-05-26T04:47:54.173Z,10.72
2019-05-26T04:50:23.387Z,9.98
2019-05-26T04:53:06.094Z,10.05
2019-05-26T04:55:24.597Z,8.10
2019-05-26T04:57:54.672Z,7.33
2019-05-26T05:00:23.811Z,7.17
2019-05-26T05:02:52.664Z,7.70
2019-05-26T05:05:21.539Z,7.25
2019-05-26T05:07:50.503Z,7.10
2019-05-26T05:10:19.841Z,5.92
2019-05-26T05:12:48.922Z,6.28
2019-05-26T05:15:17.712Z,6.40
2019-05-26T05:17:46.671Z,6.28
2019-05-26T05:20:16.108Z,6.25
2019-05-26T05:22:45.257Z,6.20
2019-05-26T05:25:15.373Z,6.25
2019-05-26T05:27:44.499Z,5.83
2019-05-26T05:30:17.520Z,5.67
2019-05-26T05:32:46.696Z,4.65
2019-05-26T05:35:15.439Z,4.90
2019-05-26T05:37:44.751Z,4.90
2019-05-26T05:40:13.959Z,4.80
2019-05-26T05:42:43.038Z,5.00
2019-05-26T05:45:12.746Z,5.10
2019-05-26T05:47:41.788Z,5.15
2019-05-26T05:50:11.487Z,5.42
2019-05-26T05:52:41.769Z,5.70
2019-05-26T05:55:11.010Z,4.75
2019-05-26T05:57:40.102Z,5.10
2019-05-26T06:00:10.668Z,4.72
2019-05-26T06:02:39.898Z,4.95
2019-05-26T06:05:09.460Z,4.42
2019-05-26T06:07:38.666Z,3.95
2019-05-26T06:10:08.889Z,3.98
2019-05-26T06:12:38.209Z,3.75
2019-05-26T06:15:12.605Z,3.58
2019-05-26T06:17:42.328Z,4.12
2019-05-26T06:20:11.829Z,3.25
2019-05-26T06:22:40.772Z,3.62
2019-05-26T06:25:10.005Z,3.75
2019-05-26T06:27:38.815Z,3.25
2019-05-26T06:30:09.474Z,3.40
2019-05-26T06:32:38.588Z,3.12
2019-05-26T06:35:07.947Z,3.22
2019-05-26T06:37:37.210Z,2.90
2019-05-26T06:40:07.585Z,3.30
2019-05-26T06:42:36.391Z,3.50
2019-05-26T06:45:06.690Z,3.50
2019-05-26T06:47:35.623Z,3.45
2019-05-26T06:50:07.889Z,3.58
2019-05-26T06:52:36.935Z,4.12
2019-05-26T06:55:06.671Z,3.58
2019-05-26T06:57:36.110Z,3.87
2019-05-26T07:00:08.758Z,4.00
2019-05-26T07:02:37.672Z,3.77
2019-05-26T07:05:07.635Z,4.10
2019-05-26T07:07:37.070Z,4.10
2019-05-26T07:10:07.036Z,3.65
2019-05-26T07:12:36.191Z,4.08
2019-05-26T07:15:11.151Z,3.67
2019-05-26T07:17:40.518Z,3.90
2019-05-26T07:20:10.178Z,3.90
2019-05-26T07:22:39.400Z,3.85
2019-05-26T07:25:08.704Z,4.37
2019-05-26T07:27:37.945Z,4.62
2019-05-26T07:30:07.785Z,3.90
2019-05-26T07:32:36.922Z,3.67
2019-05-26T07:35:07.007Z,4.55
2019-05-26T07:37:36.434Z,4.53
2019-05-26T07:40:05.767Z,4.72
2019-05-26T07:42:35.633Z,4.80
2019-05-26T07:45:05.972Z,4.80
2019-05-26T07:47:35.295Z,4.92
2019-05-26T07:50:06.039Z,5.30
2019-05-26T07:52:35.307Z,5.10
2019-05-26T07:55:05.495Z,6.60
2019-05-26T07:57:35.603Z,5.60
2019-05-26T08:00:08.443Z,6.33
2019-05-26T08:02:37.551Z,6.20
2019-05-26T08:05:10.852Z,5.85
2019-05-26T08:07:40.594Z,5.97
2019-05-26T08:10:10.121Z,7.03
2019-05-26T08:12:39.815Z,6.53
2019-05-26T08:15:09.354Z,6.58
2019-05-26T08:17:38.496Z,6.70
2019-05-26T08:20:08.244Z,6.47
2019-05-26T08:22:37.373Z,6.50
2019-05-26T08:25:06.991Z,7.37
2019-05-26T08:27:35.967Z,6.75
2019-05-26T08:30:06.457Z,6.65
2019-05-26T08:32:35.466Z,7.20
2019-05-26T08:35:06.035Z,6.78
2019-05-26T08:37:35.307Z,6.37
2019-05-26T08:40:20.740Z,7.45
2019-05-26T08:42:50.681Z,6.60
2019-05-26T08:45:21.757Z,7.12
2019-05-26T08:47:51.230Z,6.53
2019-05-26T08:50:20.426Z,6.40
2019-05-26T08:52:49.638Z,7.40
2019-05-26T08:55:19.647Z,6.58
2019-05-26T08:57:48.907Z,6.78
2019-05-26T09:00:18.281Z,6.05
2019-05-26T09:02:47.994Z,6.00
2019-05-26T09:05:17.648Z,6.50
2019-05-26T09:07:46.832Z,6.58
2019-05-26T09:10:16.417Z,6.00
2019-05-26T09:12:59.651Z,5.22
2019-05-26T09:15:16.101Z,5.45
2019-05-26T09:17:45.362Z,5.53
2019-05-26T09:20:17.427Z,5.78
2019-05-26T09:22:47.294Z,5.45
2019-05-26T09:25:16.569Z,5.08
2019-05-26T09:27:45.889Z,5.30
2019-05-26T09:30:15.001Z,6.08
2019-05-26T09:32:44.187Z,5.60
2019-05-26T09:35:13.399Z,5.10
2019-05-26T09:37:42.896Z,5.62
2019-05-26T09:40:13.875Z,5.10
2019-05-26T09:42:42.893Z,4.95
2019-05-26T09:45:12.234Z,5.25
2019-05-26T09:47:41.383Z,5.10
2019-05-26T09:50:11.011Z,5.72
2019-05-26T09:52:40.021Z,5.08
2019-05-26T09:55:09.888Z,5.03
2019-05-26T09:57:39.327Z,4.75
2019-05-26T10:00:09.721Z,5.12
2019-05-26T10:02:39.679Z,5.30
2019-05-26T10:05:10.114Z,4.40
2019-05-26T10:07:39.208Z,4.15
2019-05-26T10:10:08.813Z,5.03
2019-05-26T10:12:38.192Z,4.45
2019-05-26T10:15:07.632Z,4.03
2019-05-26T10:17:37.076Z,3.83
2019-05-26T10:20:07.147Z,4.20
2019-05-26T10:22:36.307Z,4.20
2019-05-26T10:25:07.455Z,4.75
2019-05-26T10:27:36.662Z,4.20
2019-05-26T10:30:09.638Z,4.10
2019-05-26T10:32:38.651Z,4.30
2019-05-26T10:35:07.822Z,4.25
2019-05-26T10:37:36.882Z,4.22
2019-05-26T10:40:06.332Z,3.60
2019-05-26T10:42:35.460Z,4.00
2019-05-26T10:45:08.325Z,4.10
2019-05-26T10:47:37.567Z,3.70
2019-05-26T10:50:10.674Z,4.08
2019-05-26T10:52:39.940Z,5.97
2019-05-26T10:55:09.273Z,3.70
2019-05-26T10:57:38.072Z,3.30
2019-05-26T11:00:07.620Z,3.80
2019-05-26T11:02:36.925Z,3.60
2019-05-26T11:05:06.375Z,4.08
2019-05-26T11:07:42.127Z,4.00
2019-05-26T11:10:11.237Z,4.20
2019-05-26T11:12:40.445Z,3.67
2019-05-26T11:15:09.558Z,3.58
2019-05-26T11:17:39.012Z,4.22
2019-05-26T11:20:10.061Z,3.90
2019-05-26T11:22:39.074Z,3.95
2019-05-26T11:25:08.622Z,3.60
2019-05-26T11:27:37.536Z,3.92
2019-05-26T11:30:08.157Z,3.40
2019-05-26T11:32:37.237Z,3.30
2019-05-26T11:35:06.988Z,3.40
2019-05-26T11:37:36.164Z,3.45
2019-05-26T11:40:06.326Z,4.00
2019-05-26T11:42:35.518Z,3.98
2019-05-26T11:45:06.105Z,4.28
2019-05-26T11:47:35.301Z,4.00
2019-05-26T11:50:06.214Z,4.00
2019-05-26T11:52:36.024Z,3.80
2019-05-26T11:55:06.557Z,4.00
2019-05-26T11:57:37.077Z,3.92
2019-05-26T12:00:10.533Z,3.50
2019-05-26T12:02:40.437Z,4.25
2019-05-26T12:05:09.689Z,4.17
2019-05-26T12:07:38.675Z,3.45
2019-05-26T12:10:08.406Z,4.17
2019-05-26T12:12:37.914Z,3.90
2019-05-26T12:15:08.283Z,4.40
2019-05-26T12:17:37.538Z,4.12
2019-05-26T12:20:07.884Z,4.80
2019-05-26T12:22:38.288Z,4.12
2019-05-26T12:25:07.641Z,4.95
2019-05-26T12:27:36.789Z,4.50
2019-05-26T12:30:06.027Z,4.22
2019-05-26T12:32:35.316Z,4.15
2019-05-26T12:35:06.115Z,3.72
2019-05-26T12:37:35.491Z,4.33
2019-05-26T12:40:06.048Z,4.20
2019-05-26T12:42:35.310Z,4.10
2019-05-26T12:45:06.035Z,4.10
2019-05-26T12:47:35.309Z,4.12
2019-05-26T12:50:06.344Z,4.20
2019-05-26T12:52:35.459Z,4.00
2019-05-26T12:55:09.242Z,3.80
2019-05-26T12:57:37.218Z,4.28
2019-05-26T13:00:08.027Z,3.77
2019-05-26T13:02:36.872Z,3.90
2019-05-26T13:05:07.336Z,4.25
2019-05-26T13:07:36.777Z,3.72
2019-05-26T13:10:06.646Z,3.67
2019-05-26T13:12:35.801Z,3.60
2019-05-26T13:15:09.232Z,3.55
2019-05-26T13:17:38.613Z,3.72
2019-05-26T13:20:08.884Z,3.95
2019-05-26T13:22:38.544Z,4.17
2019-05-26T13:25:08.730Z,3.65
2019-05-26T13:27:37.734Z,4.08
2019-05-26T13:30:08.560Z,2.83
2019-05-26T13:32:37.729Z,2.83
2019-05-26T13:35:07.772Z,3.58
2019-05-26T13:37:37.000Z,2.98
2019-05-26T13:40:07.363Z,3.45
2019-05-26T13:42:36.715Z,3.00
2019-05-26T13:45:21.281Z,2.80
2019-05-26T13:47:38.529Z,3.00
2019-05-26T13:50:07.932Z,2.83
2019-05-26T13:52:37.357Z,2.67
2019-05-26T13:55:07.771Z,3.02
2019-05-26T13:57:36.898Z,2.75
2019-05-26T14:00:07.399Z,2.70
2019-05-26T14:02:36.922Z,2.47
2019-05-26T14:05:07.474Z,3.45
2019-05-26T14:07:36.707Z,4.03
2019-05-26T14:10:07.808Z,2.70
2019-05-26T14:12:37.318Z,2.60
2019-05-26T14:15:07.754Z,4.62
2019-05-26T14:17:38.668Z,2.40
2019-05-26T14:20:08.896Z,2.58
2019-05-26T14:22:38.512Z,12.03
2019-05-26T14:25:08.612Z,2.70
2019-05-26T14:27:37.782Z,2.55
2019-05-26T14:30:07.260Z,2.02
2019-05-26T14:32:36.383Z,2.40
2019-05-26T14:35:07.002Z,11.20
2019-05-26T14:37:36.048Z,2.92
2019-05-26T14:40:08.753Z,7.50
2019-05-26T14:42:37.900Z,3.00
2019-05-26T14:45:07.714Z,5.17
2019-05-26T14:47:37.073Z,2.50
2019-05-26T14:50:09.512Z,2.08
2019-05-26T14:52:38.876Z,2.60
2019-05-26T14:55:09.433Z,2.20
2019-05-26T14:57:39.001Z,2.50
2019-05-26T15:00:09.090Z,2.42
2019-05-26T15:02:38.322Z,2.47
2019-05-26T15:05:07.980Z,2.08
2019-05-26T15:07:37.041Z,2.33
2019-05-26T15:10:07.614Z,2.25
2019-05-26T15:12:37.125Z,2.40
2019-05-26T15:15:06.628Z,2.30
2019-05-26T15:17:36.109Z,2.52
2019-05-26T15:20:06.786Z,2.12
2019-05-26T15:22:36.276Z,2.62
2019-05-26T15:25:08.914Z,2.50
2019-05-26T15:27:38.234Z,2.40
2019-05-26T15:30:08.583Z,2.50
2019-05-26T15:32:37.674Z,2.25
2019-05-26T15:35:07.768Z,2.20
2019-05-26T15:37:38.152Z,3.08
2019-05-26T15:40:08.427Z,2.10
2019-05-26T15:42:37.398Z,2.33
2019-05-26T15:45:11.268Z,2.60
2019-05-26T15:47:40.408Z,2.58
2019-05-26T15:50:13.420Z,2.50
2019-05-26T15:52:41.072Z,2.60
2019-05-26T15:55:10.818Z,2.22
2019-05-26T15:57:40.276Z,2.00
2019-05-26T16:00:09.695Z,2.37
2019-05-26T16:02:38.529Z,2.40
2019-05-26T16:05:07.780Z,7.10
2019-05-26T16:07:36.646Z,2.47
2019-05-26T16:10:06.648Z,2.25
2019-05-26T16:12:36.127Z,1.90
2019-05-26T16:15:08.742Z,1.90
2019-05-26T16:17:38.840Z,1.95
2019-05-26T16:20:08.460Z,2.10
2019-05-26T16:22:37.709Z,2.10
2019-05-26T16:25:07.326Z,2.12
2019-05-26T16:27:37.151Z,2.35
2019-05-26T16:30:07.811Z,2.10
2019-05-26T16:32:37.747Z,2.45
2019-05-26T16:35:07.043Z,2.60
2019-05-26T16:37:36.116Z,2.60
2019-05-26T16:40:05.736Z,3.55
2019-05-26T16:42:35.331Z,3.22
2019-05-26T16:45:05.414Z,2.30
2019-05-26T16:47:34.832Z,2.30
2019-05-26T16:50:04.471Z,2.33
2019-05-26T16:52:34.294Z,2.65
2019-05-26T16:55:03.808Z,2.40
2019-05-26T16:57:32.763Z,2.20
2019-05-26T17:00:02.049Z,2.10
2019-05-26T17:02:31.498Z,2.27
2019-05-26T17:05:01.457Z,2.30
2019-05-26T17:07:33.883Z,2.37
2019-05-26T17:10:03.433Z,2.50
2019-05-26T17:12:32.665Z,2.27
2019-05-26T17:15:01.872Z,2.30
2019-05-26T17:17:31.864Z,2.37
2019-05-26T17:20:00.861Z,2.92
2019-05-26T17:22:29.679Z,2.37
2019-05-26T17:25:00.027Z,2.30
2019-05-26T17:27:29.443Z,2.20
2019-05-26T17:29:58.588Z,2.60
2019-05-26T17:32:27.439Z,2.72
2019-05-26T17:34:56.758Z,2.60
2019-05-26T17:37:25.682Z,2.90
2019-05-26T17:39:54.991Z,3.37
2019-05-26T17:42:24.139Z,2.77
2019-05-26T17:44:53.475Z,2.35
2019-05-26T17:47:30.186Z,3.00
2019-05-26T17:49:53.179Z,3.10
2019-05-26T17:52:22.480Z,2.62
2019-05-26T17:54:51.962Z,2.47
2019-05-26T17:57:21.399Z,2.72
2019-05-26T17:59:50.268Z,2.77
2019-05-26T18:02:19.447Z,2.40
2019-05-26T18:04:48.730Z,2.40
2019-05-26T18:07:17.837Z,2.52
2019-05-26T18:09:46.485Z,2.83
2019-05-26T18:12:15.442Z,2.75
2019-05-26T18:14:44.908Z,3.02
2019-05-26T18:17:13.855Z,3.30
2019-05-26T18:19:43.004Z,2.75
2019-05-26T18:22:12.298Z,2.62
2019-05-26T18:24:52.933Z,2.95
2019-05-26T18:27:12.108Z,3.75
2019-05-26T18:29:41.306Z,3.87
2019-05-26T18:32:10.932Z,4.58
2019-05-26T18:34:40.846Z,4.17
2019-05-26T18:37:10.371Z,3.67
2019-05-26T18:39:44.018Z,3.40
2019-05-26T18:42:14.151Z,30.88
2019-05-26T18:44:43.924Z,4.35
2019-05-26T18:47:12.980Z,3.58
2019-05-26T18:49:42.525Z,3.37
2019-05-26T18:52:12.198Z,3.45
2019-05-26T18:54:41.718Z,3.37
2019-05-26T18:57:10.734Z,3.70
2019-05-26T18:59:39.653Z,3.67
2019-05-26T19:02:08.714Z,3.60
2019-05-26T19:04:38.045Z,3.67
2019-05-26T19:07:07.265Z,3.40
2019-05-26T19:09:37.160Z,3.20
2019-05-26T19:12:06.517Z,3.92
2019-05-26T19:14:35.955Z,4.05
2019-05-26T19:17:05.657Z,4.08
2019-05-26T19:19:34.976Z,3.45
2019-05-26T19:22:04.271Z,5.60
2019-05-26T19:24:34.034Z,4.40
2019-05-26T19:27:03.142Z,3.90
2019-05-26T19:29:32.591Z,4.22
2019-05-26T19:32:02.053Z,3.70
2019-05-26T19:34:31.339Z,3.98
2019-05-26T19:37:00.755Z,4.12
2019-05-26T19:39:30.206Z,4.70
2019-05-26T19:41:59.999Z,4.28
2019-05-26T19:44:29.062Z,4.42
2019-05-26T19:46:57.939Z,4.42
2019-05-26T19:49:26.899Z,4.47
2019-05-26T19:51:55.681Z,4.42
2019-05-26T19:54:24.633Z,4.47
2019-05-26T19:56:53.611Z,4.50
2019-05-26T19:59:22.401Z,4.40
2019-05-26T20:01:54.196Z,4.75
2019-05-26T20:04:23.838Z,4.92
2019-05-26T20:06:54.647Z,4.90
2019-05-26T20:09:26.984Z,5.20
2019-05-26T20:11:56.169Z,5.65
2019-05-26T20:14:26.032Z,5.92
2019-05-26T20:16:55.109Z,8.45
2019-05-26T20:19:25.292Z,7.22
2019-05-26T20:21:54.783Z,5.90
2019-05-26T20:24:23.661Z,5.92
2019-05-26T20:26:53.075Z,5.20
2019-05-26T20:29:21.936Z,5.62
2019-05-26T20:31:52.325Z,5.85
2019-05-26T20:34:22.610Z,6.08
2019-05-26T20:36:51.381Z,9.80
2019-05-26T20:39:20.401Z,7.92
2019-05-26T20:41:49.396Z,6.08
2019-05-26T20:44:18.667Z,5.70
2019-05-26T20:46:47.793Z,6.85
2019-05-26T20:49:17.276Z,6.78
2019-05-26T20:51:46.673Z,7.80
2019-05-26T20:54:15.737Z,6.67
2019-05-26T20:56:45.571Z,6.85
2019-05-26T20:59:15.009Z,7.17
2019-05-26T21:01:44.133Z,6.90
2019-05-26T21:04:15.513Z,7.03
2019-05-26T21:06:44.914Z,6.58
2019-05-26T21:09:15.403Z,7.35
2019-05-26T21:11:46.627Z,7.05
2019-05-26T21:14:15.742Z,6.97
2019-05-26T21:16:46.503Z,6.45
2019-05-26T21:19:16.272Z,6.28
2019-05-26T21:21:47.501Z,6.30
2019-05-26T21:24:16.873Z,6.50
2019-05-26T21:26:45.961Z,6.33
2019-05-26T21:29:15.206Z,7.20
2019-05-26T21:31:45.207Z,6.78
2019-05-26T21:34:14.168Z,6.67
2019-05-26T21:36:43.126Z,6.90
2019-05-26T21:39:12.154Z,6.58
2019-05-26T21:41:41.108Z,6.37
2019-05-26T21:44:10.742Z,7.17
2019-05-26T21:46:41.720Z,6.75
2019-05-26T21:49:10.618Z,7.40
2019-05-26T21:51:39.935Z,6.95
2019-05-26T21:54:09.427Z,6.50
2019-05-26T21:56:38.545Z,7.03
2019-05-26T21:59:07.972Z,6.70
2019-05-26T22:01:36.750Z,7.10
2019-05-26T22:04:05.896Z,7.20
2019-05-26T22:06:35.311Z,7.53
2019-05-26T22:09:06.223Z,7.40
2019-05-26T22:11:35.803Z,7.78
2019-05-26T22:14:05.280Z,7.40
2019-05-26T22:16:34.830Z,7.58
2019-05-26T22:19:04.238Z,7.67
2019-05-26T22:21:33.558Z,8.73
2019-05-26T22:24:10.131Z,8.38
2019-05-26T22:26:39.527Z,8.25
2019-05-26T22:29:08.802Z,7.65
2019-05-26T22:31:37.852Z,6.67
2019-05-26T22:34:07.148Z,7.85
2019-05-26T22:36:36.599Z,8.70
2019-05-26T22:39:07.006Z,7.62
2019-05-26T22:41:36.484Z,9.00
2019-05-26T22:44:05.873Z,8.75
2019-05-26T22:46:35.608Z,8.50
2019-05-26T22:49:04.899Z,9.48
2019-05-26T22:51:34.249Z,8.40
2019-05-26T22:54:04.130Z,8.63
2019-05-26T22:56:33.626Z,8.85
2019-05-26T22:59:02.862Z,9.28
2019-05-26T23:01:31.791Z,8.80
2019-05-26T23:04:03.189Z,9.45
2019-05-26T23:06:32.188Z,9.18
2019-05-26T23:09:01.540Z,9.18
2019-05-26T23:11:31.726Z,9.00
2019-05-26T23:14:01.305Z,8.78
2019-05-26T23:16:30.522Z,9.75
2019-05-26T23:19:00.034Z,9.33
2019-05-26T23:21:29.412Z,8.73
2019-05-26T23:23:58.527Z,9.00
2019-05-26T23:26:28.973Z,9.18
2019-05-26T23:28:58.687Z,9.68
2019-05-26T23:31:28.016Z,9.23
2019-05-26T23:33:57.606Z,9.95
2019-05-26T23:36:27.385Z,8.88
2019-05-26T23:38:57.148Z,9.05
2019-05-26T23:41:27.293Z,9.70
2019-05-26T23:43:56.408Z,9.68
2019-05-26T23:46:27.014Z,10.32
2019-05-26T23:48:56.017Z,9.53
2019-05-26T23:51:25.435Z,10.60
2019-05-26T23:53:54.370Z,11.63
2019-05-26T23:56:24.025Z,11.73
2019-05-26T23:58:53.368Z,10.23
